Aérodrome :
LOGIN :

S'inscrire | Disclaimer

   EN    FR    IT 

 










Légende :    VFR   VFR Marginal   IFR   IFR Intensif   IFR Très Intensif
Visi : 
Plafond : 
>= 8 km
>= 3000ft
5 à 8 km
1000 à 3000 ft
1500m à 5 km
500 à 1000 ft
800 à 1500m
200 à 500 ft
< 800m
< 200 ft
Symboles :   Orages  Brouillard  Fortes neiges  Fortes précipitations  Vent > 20 kt
SIGMETs :   Divers  Orages  Givrage  Turbulence  Onde Orograph.  Cendres Volcan.






- Altitude de l'aérodrome : 1768 ft


LEHC - Huesca Pirineos

DERNIER METAR :
  • 192330Z AUTO VRB02KT CAVOK 02/00 Q1018

METARs EXPIRÉS :
  • 192300Z AUTO 07004KT CAVOK 03/01 Q1019
  • 192230Z AUTO 08004KT CAVOK 03/01 Q1019
  • 192200Z AUTO VRB02KT CAVOK 02/01 Q1019
  • 192130Z AUTO 06003KT CAVOK 03/01 Q1019
  • 192100Z AUTO 01003KT CAVOK 01/01 Q1019

TAF TAF LEHC
Valide du 19 à 15h jusqu'au 20 à 15h UTC


191400Z 1915/2015 10007KT 9999 FEW020 TX08/2014Z TNM01/2006Z
TEMPO 1920/2010 1500 BCFG BKN004
PROB40
TEMPO 1922/2009 0300 FZFG VV001



MET'MAP, la Météo Aéronautique d'un coup d'oeil ! - Copyright ORBIFLY Décembre 2007 - Disclaimer

ORBIFLY MET'MAP TEAM :

Programmation & Développement : Alexandra Zaïnal
Sur une idée originale de : Baudouin d'Aumeries
Assistance à la programmation : Marc-Olivier Méhu
Soutien technique & logistique : Manuel Goepfert

Contact : metmap@orbifly.com




SOURCES & CREDITS :

   NOAA